Time;durP1;ratioP1;P1;durP2;ratioP2;P2;SDS_P1;SDS_P2;PMS_P1;PMS_P2;Temp;Humidity;BMP_temperature;BMP_pressure;BME280_temperature;BME280_humidity;BME280_pressure;Samples;Min_cycle;Max_cycle;Signal;HPM_P1;HPM_P2
2022/08/23 00:01:25;;;;;;;4.60;1.00;;;22.50;64.40;;;;;;5055505;28;20056;-90
2022/08/23 00:03:54;;;;;;;4.18;1.35;;;22.50;64.40;;;;;;5056589;28;20549;-91
2022/08/23 00:06:21;;;;;;;5.72;1.25;;;22.50;64.50;;;;;;5056452;28;20021;-90
2022/08/23 00:08:48;;;;;;;6.80;1.10;;;22.40;64.60;;;;;;5055751;28;20075;-91
2022/08/23 00:11:36;;;;;;;4.57;1.30;;;22.40;64.80;;;;;;5056231;28;20021;-90
2022/08/23 00:14:07;;;;;;;3.72;0.93;;;22.40;65.00;;;;;;5054896;28;20021;-90
2022/08/23 00:16:34;;;;;;;6.05;1.80;;;22.40;65.10;;;;;;5056827;28;20025;-91
2022/08/23 00:19:01;;;;;;;6.13;1.27;;;22.30;65.10;;;;;;5055614;28;20025;-91
2022/08/23 00:21:28;;;;;;;4.03;1.08;;;22.30;65.20;;;;;;5057289;28;20036;-90
2022/08/23 00:23:54;;;;;;;6.03;1.20;;;22.30;65.30;;;;;;5059762;28;20040;-90
2022/08/23 00:26:19;;;;;;;8.48;1.38;;;22.30;65.40;;;;;;5057078;28;20033;-90
2022/08/23 00:28:46;;;;;;;7.82;1.85;;;22.20;65.50;;;;;;5057555;28;20122;-91
2022/08/23 00:31:12;;;;;;;5.03;1.55;;;22.20;65.60;;;;;;5073743;28;20097;-89
2022/08/23 00:33:37;;;;;;;5.03;1.08;;;22.20;65.70;;;;;;5075562;28;20029;-93
2022/08/23 00:36:03;;;;;;;3.75;0.93;;;22.20;65.80;;;;;;5060922;28;20029;-91
2022/08/23 00:38:29;;;;;;;5.30;1.35;;;22.10;65.80;;;;;;5045147;28;20385;-91
2022/08/23 00:40:55;;;;;;;6.07;1.55;;;22.10;66.00;;;;;;5057150;28;20033;-91
2022/08/23 00:49:11;;;;;;;5.13;1.40;;;22.00;66.30;;;;;;5056225;28;20036;-91
2022/08/23 00:51:56;;;;;;;4.80;1.27;;;22.00;66.40;;;;;;5054545;28;20074;-90
2022/08/23 00:54:24;;;;;;;4.28;1.27;;;22.00;66.70;;;;;;5054788;28;20048;-91
2022/08/23 00:56:50;;;;;;;4.57;1.30;;;21.90;66.60;;;;;;5055342;28;20069;-91
2022/08/23 00:59:17;;;;;;;5.40;1.50;;;21.90;66.70;;;;;;5054748;28;20021;-91
2022/08/23 01:01:42;;;;;;;4.18;1.60;;;21.90;66.70;;;;;;5055529;28;20037;-91
2022/08/23 01:04:11;;;;;;;5.25;1.50;;;21.80;66.80;;;;;;5054552;28;20032;-92
2022/08/23 01:06:41;;;;;;;2.53;1.45;;;21.80;66.90;;;;;;5057369;28;20025;-91
2022/08/23 01:09:12;;;;;;;5.45;1.48;;;21.80;67.00;;;;;;5056411;28;20057;-91
2022/08/23 01:12:10;;;;;;;8.00;1.90;;;21.80;67.10;;;;;;5055793;28;20029;-91
2022/08/23 01:14:58;;;;;;;5.47;2.00;;;21.70;67.30;;;;;;5054578;28;20027;-91
2022/08/23 01:17:41;;;;;;;3.47;1.40;;;21.70;67.50;;;;;;5056363;28;20089;-91
2022/08/23 01:20:12;;;;;;;6.93;1.60;;;21.70;67.70;;;;;;5057032;28;20917;-92
2022/08/23 01:23:06;;;;;;;4.53;1.60;;;21.70;67.80;;;;;;5057675;28;20032;-91
2022/08/23 01:25:33;;;;;;;4.22;1.40;;;21.70;68.00;;;;;;5058314;28;20047;-91
2022/08/23 01:27:59;;;;;;;3.95;1.50;;;21.60;68.00;;;;;;5059391;28;20081;-91
2022/08/23 01:30:31;;;;;;;5.97;1.55;;;21.60;68.10;;;;;;5060257;28;20051;-91
2022/08/23 01:32:59;;;;;;;4.85;1.73;;;21.50;68.20;;;;;;5058917;28;20043;-90
2022/08/23 01:35:42;;;;;;;5.90;1.80;;;21.50;68.30;;;;;;5057580;28;20027;-91
2022/08/23 01:38:09;;;;;;;6.93;1.70;;;21.50;68.50;;;;;;5058906;28;20017;-91
2022/08/23 01:40:35;;;;;;;6.05;1.65;;;21.50;68.60;;;;;;5057950;28;20025;-91
2022/08/23 01:43:01;;;;;;;6.70;1.48;;;21.50;69.10;;;;;;5042263;28;20032;-90
2022/08/23 01:45:28;;;;;;;5.90;1.63;;;21.40;69.50;;;;;;5060612;28;20021;-91
2022/08/23 01:47:54;;;;;;;5.68;1.48;;;21.40;69.70;;;;;;5057941;28;20029;-90
2022/08/23 01:50:20;;;;;;;6.28;1.85;;;21.40;70.00;;;;;;5055574;28;20036;-91
2022/08/23 01:52:45;;;;;;;4.18;1.65;;;21.30;69.70;;;;;;5055684;28;20029;-91
2022/08/23 01:55:11;;;;;;;3.30;1.58;;;21.30;69.70;;;;;;5055029;28;20052;-90
2022/08/23 01:57:39;;;;;;;9.38;1.83;;;21.30;69.70;;;;;;5053937;28;20032;-92
2022/08/23 02:00:07;;;;;;;6.07;1.70;;;21.30;69.80;;;;;;5056267;28;20059;-92
2022/08/23 02:02:32;;;;;;;5.53;1.60;;;21.30;69.90;;;;;;5057354;28;20056;-89
2022/08/23 02:04:58;;;;;;;7.53;2.50;;;21.20;69.90;;;;;;5056211;28;20036;-91
2022/08/23 02:07:28;;;;;;;6.53;2.45;;;21.20;70.10;;;;;;5057950;28;20052;-91
2022/08/23 02:09:54;;;;;;;9.50;2.28;;;21.20;70.30;;;;;;5059567;28;20036;-92
2022/08/23 02:12:20;;;;;;;5.03;1.80;;;21.20;70.60;;;;;;5058814;28;20059;-90
2022/08/23 02:14:46;;;;;;;4.78;2.17;;;21.20;70.60;;;;;;5059827;28;20025;-92
2022/08/23 02:17:12;;;;;;;6.25;2.47;;;21.20;70.70;;;;;;5042410;28;20033;-92
2022/08/23 02:19:38;;;;;;;5.60;1.80;;;21.10;70.70;;;;;;5057486;28;20025;-91
2022/08/23 02:22:06;;;;;;;6.30;2.08;;;21.10;70.90;;;;;;5024550;28;20035;-92
2022/08/23 02:24:32;;;;;;;4.70;1.77;;;21.10;70.90;;;;;;5040570;28;20549;-91
2022/08/23 02:27:03;;;;;;;4.75;1.73;;;21.10;70.90;;;;;;5063023;28;20051;-91
2022/08/23 02:29:29;;;;;;;4.07;1.95;;;21.10;71.00;;;;;;5065628;28;20021;-89
2022/08/23 02:31:56;;;;;;;4.30;1.92;;;21.10;70.90;;;;;;5057177;28;20029;-90
2022/08/23 02:34:22;;;;;;;5.18;1.90;;;21.00;70.90;;;;;;5062854;28;20029;-92
2022/08/23 02:36:48;;;;;;;7.32;2.28;;;21.00;71.00;;;;;;5066322;28;20037;-92
2022/08/23 02:39:17;;;;;;;5.75;2.03;;;21.00;71.20;;;;;;5074421;28;20017;-91
2022/08/23 02:41:43;;;;;;;5.53;1.95;;;20.90;71.20;;;;;;5067678;28;20048;-92
2022/08/23 02:44:09;;;;;;;4.95;2.00;;;20.90;71.20;;;;;;5059040;28;20037;-92
2022/08/23 02:46:36;;;;;;;6.45;2.05;;;20.90;71.20;;;;;;5062492;28;20021;-87
2022/08/23 02:49:02;;;;;;;4.30;1.65;;;20.90;71.20;;;;;;5065621;28;20032;-90
2022/08/23 02:51:28;;;;;;;5.38;1.90;;;20.90;71.30;;;;;;5065722;28;20025;-91
2022/08/23 02:53:54;;;;;;;7.53;2.08;;;20.90;71.30;;;;;;5073308;28;20007;-92
2022/08/23 02:56:19;;;;;;;8.75;2.00;;;20.90;71.40;;;;;;5080253;28;20064;-91
2022/08/23 02:58:45;;;;;;;6.15;1.95;;;20.90;71.50;;;;;;5079057;28;20029;-90
2022/08/23 03:01:22;;;;;;;6.13;2.22;;;20.90;71.50;;;;;;5079262;28;20033;-88
2022/08/23 03:03:47;;;;;;;6.18;1.98;;;20.80;71.60;;;;;;5074874;28;20037;-89
2022/08/23 03:06:14;;;;;;;5.07;2.30;;;20.80;71.60;;;;;;5065157;28;20029;-92
2022/08/23 03:08:40;;;;;;;5.75;2.50;;;20.80;71.70;;;;;;5058230;28;20047;-92
2022/08/23 03:11:15;;;;;;;6.60;2.10;;;20.80;71.70;;;;;;5057676;28;20029;-92
2022/08/23 03:13:42;;;;;;;5.22;2.22;;;20.70;71.80;;;;;;5058351;28;20029;-92
2022/08/23 03:16:09;;;;;;;5.63;1.98;;;20.70;71.80;;;;;;5058796;28;20389;-90
2022/08/23 03:18:35;;;;;;;4.15;2.28;;;20.70;71.90;;;;;;5056803;28;20029;-92
2022/08/23 03:21:01;;;;;;;5.85;2.00;;;20.70;72.10;;;;;;5058109;28;20021;-92
2022/08/23 03:23:28;;;;;;;6.80;2.38;;;20.70;72.10;;;;;;5040484;28;20044;-91
2022/08/23 03:25:56;;;;;;;6.40;2.22;;;20.70;72.30;;;;;;5056315;28;20075;-90
2022/08/23 03:28:22;;;;;;;4.78;2.20;;;20.70;72.40;;;;;;5056626;28;20112;-92
2022/08/23 03:30:48;;;;;;;4.65;2.17;;;20.60;72.40;;;;;;5056732;28;20059;-92
2022/08/23 03:33:14;;;;;;;5.80;2.33;;;20.60;72.50;;;;;;5056218;28;20086;-92
2022/08/23 03:35:41;;;;;;;5.22;2.42;;;20.60;72.60;;;;;;5056343;28;20424;-90
2022/08/23 03:38:07;;;;;;;4.32;1.90;;;20.60;72.70;;;;;;5056037;28;20052;-92
2022/08/23 03:40:33;;;;;;;7.57;2.70;;;20.50;72.70;;;;;;5039951;28;20036;-92
2022/08/23 03:43:00;;;;;;;5.90;2.33;;;20.50;72.80;;;;;;5057281;28;20033;-91
2022/08/23 03:45:26;;;;;;;8.82;2.45;;;20.50;72.90;;;;;;5056899;28;20021;-89
2022/08/23 03:47:52;;;;;;;5.43;2.38;;;20.50;73.00;;;;;;5057354;28;20484;-92
2022/08/23 03:50:19;;;;;;;10.57;2.72;;;20.50;73.20;;;;;;5056431;28;20017;-90
2022/08/23 03:52:45;;;;;;;6.20;2.22;;;20.40;73.20;;;;;;5057151;28;20072;-91
2022/08/23 03:55:12;;;;;;;7.38;2.72;;;20.40;73.40;;;;;;5055881;28;20482;-91
2022/08/23 03:57:37;;;;;;;4.80;2.22;;;20.40;73.80;;;;;;5056499;28;20031;-92
2022/08/23 04:00:06;;;;;;;3.97;2.63;;;20.40;74.10;;;;;;5056431;28;20033;-93
2022/08/23 04:02:32;;;;;;;7.47;2.40;;;20.40;74.20;;;;;;5057259;28;20020;-92
2022/08/23 04:04:58;;;;;;;9.68;2.90;;;20.30;74.30;;;;;;5056368;28;20044;-90
2022/08/23 04:07:25;;;;;;;4.82;2.30;;;20.30;74.60;;;;;;5056126;28;20469;-91
2022/08/23 04:09:51;;;;;;;5.65;2.70;;;20.30;75.00;;;;;;5055664;28;20074;-91
2022/08/23 04:12:17;;;;;;;8.45;2.90;;;20.20;75.40;;;;;;5057104;28;20389;-88
2022/08/23 04:14:44;;;;;;;6.95;2.92;;;20.30;75.80;;;;;;5055467;28;20056;-91
2022/08/23 04:17:13;;;;;;;9.07;3.83;;;20.20;75.90;;;;;;5056637;28;20024;-91
2022/08/23 04:19:38;;;;;;;6.90;3.20;;;20.20;75.90;;;;;;5056790;28;20029;-92
2022/08/23 04:22:04;;;;;;;5.57;2.70;;;20.20;76.00;;;;;;5055027;28;20025;-91
2022/08/23 04:24:30;;;;;;;5.82;2.78;;;20.20;76.00;;;;;;5056119;28;20025;-90
2022/08/23 04:26:55;;;;;;;7.30;3.00;;;20.20;76.10;;;;;;5056411;28;20059;-92
2022/08/23 04:29:21;;;;;;;7.05;3.00;;;20.20;76.20;;;;;;5055518;28;20022;-92
2022/08/23 04:31:47;;;;;;;5.20;2.92;;;20.20;76.20;;;;;;5055276;28;20036;-92
2022/08/23 04:34:13;;;;;;;8.65;3.17;;;20.20;76.50;;;;;;5055341;28;20044;-92
2022/08/23 04:36:41;;;;;;;5.57;2.88;;;20.20;76.70;;;;;;5039594;28;20025;-92
2022/08/23 04:39:08;;;;;;;5.80;3.20;;;20.20;76.80;;;;;;5055260;28;20027;-91
2022/08/23 04:44:20;;;;;;;7.45;3.30;;;20.20;76.80;;;;;;5074445;28;20071;-92
2022/08/23 04:46:47;;;;;;;8.73;3.00;;;20.20;76.80;;;;;;5077477;28;20109;-88
2022/08/23 04:49:13;;;;;;;8.18;4.00;;;20.20;76.90;;;;;;5076765;28;20028;-91
2022/08/23 04:51:39;;;;;;;8.30;3.88;;;20.20;77.70;;;;;;5079957;28;20032;-92
2022/08/23 04:54:06;;;;;;;8.68;4.07;;;20.10;77.00;;;;;;5059117;28;20029;-91
2022/08/23 04:56:33;;;;;;;8.32;4.32;;;20.10;77.00;;;;;;5058320;28;20056;-91
2022/08/23 04:58:58;;;;;;;7.05;3.70;;;20.10;77.10;;;;;;5055606;28;20052;-91
2022/08/23 05:01:24;;;;;;;7.88;3.55;;;20.20;77.20;;;;;;5055339;28;20380;-92
2022/08/23 05:03:51;;;;;;;10.02;3.70;;;20.10;77.30;;;;;;5063660;28;20037;-93
2022/08/23 05:06:17;;;;;;;8.02;3.97;;;20.10;77.30;;;;;;5038733;28;20025;-92
2022/08/23 05:08:43;;;;;;;10.00;4.45;;;20.20;77.40;;;;;;5055788;28;20025;-93
2022/08/23 05:11:10;;;;;;;7.63;3.95;;;20.10;77.40;;;;;;5056597;28;20086;-92
2022/08/23 05:13:37;;;;;;;7.78;4.05;;;20.10;77.40;;;;;;5055569;28;20544;-92
2022/08/23 05:16:04;;;;;;;8.00;4.20;;;20.20;77.60;;;;;;5055853;28;20112;-91
2022/08/23 05:18:30;;;;;;;7.05;3.97;;;20.20;77.50;;;;;;5054921;28;20398;-92
2022/08/23 05:20:56;;;;;;;10.48;5.03;;;20.20;77.50;;;;;;5055380;28;20021;-93
2022/08/23 05:23:22;;;;;;;8.98;4.55;;;20.20;77.50;;;;;;5054354;28;20094;-91
2022/08/23 05:25:51;;;;;;;9.23;4.65;;;20.20;77.40;;;;;;5054493;28;20053;-89
2022/08/23 05:28:20;;;;;;;10.55;4.28;;;20.30;77.40;;;;;;5055232;28;20488;-93
2022/08/23 05:31:08;;;;;;;8.30;4.63;;;20.30;77.40;;;;;;5055153;28;20112;-93
2022/08/23 05:33:34;;;;;;;7.00;4.00;;;20.40;77.40;;;;;;5055031;28;20438;-93
2022/08/23 05:36:01;;;;;;;8.30;4.40;;;20.40;77.30;;;;;;5054305;28;20037;-93
2022/08/23 05:38:27;;;;;;;11.55;4.07;;;20.40;77.30;;;;;;5055011;28;20031;-93
2022/08/23 05:40:56;;;;;;;9.43;4.28;;;20.40;77.30;;;;;;5053814;28;20792;-90
2022/08/23 05:43:23;;;;;;;7.28;4.65;;;20.50;77.30;;;;;;5054701;28;20047;-92
2022/08/23 05:46:18;;;;;;;9.20;4.35;;;20.50;77.30;;;;;;5053969;28;20021;-93
2022/08/23 05:48:46;;;;;;;8.65;4.30;;;20.50;77.40;;;;;;5053698;28;20435;-93
2022/08/23 05:51:18;;;;;;;8.90;4.35;;;20.50;77.50;;;;;;5053562;28;20029;-93
2022/08/23 05:53:45;;;;;;;9.50;4.93;;;20.60;77.60;;;;;;5053276;28;20021;-92
2022/08/23 05:56:30;;;;;;;10.90;6.18;;;20.70;77.60;;;;;;5054364;28;20076;-92
2022/08/23 05:58:59;;;;;;;13.00;5.43;;;20.70;77.60;;;;;;5055110;28;20108;-92
2022/08/23 06:01:26;;;;;;;11.30;5.65;;;20.70;77.50;;;;;;5053421;28;20032;-92
2022/08/23 06:03:52;;;;;;;11.68;6.18;;;20.80;77.50;;;;;;5053446;28;20044;-91
2022/08/23 06:06:19;;;;;;;11.30;4.40;;;20.80;77.40;;;;;;5053581;28;20033;-93
2022/08/23 06:08:46;;;;;;;12.25;6.47;;;20.90;77.50;;;;;;5053281;28;20104;-93
2022/08/23 06:11:21;;;;;;;10.75;4.88;;;20.90;77.40;;;;;;5054390;28;20040;-91
2022/08/23 06:13:55;;;;;;;9.65;5.85;;;21.00;77.30;;;;;;5054737;28;20044;-93
2022/08/23 06:16:27;;;;;;;12.30;5.55;;;21.00;77.00;;;;;;5055328;28;20025;-92
2022/08/23 06:18:55;;;;;;;10.27;5.83;;;21.00;76.90;;;;;;5059472;28;20052;-93
2022/08/23 06:21:21;;;;;;;12.48;6.32;;;21.10;76.90;;;;;;5058415;28;20029;-93
2022/08/23 06:23:48;;;;;;;11.75;6.10;;;21.20;76.80;;;;;;5052512;28;20492;-94
2022/08/23 06:26:37;;;;;;;11.02;5.80;;;21.20;76.90;;;;;;5053401;28;20465;-91
2022/08/23 06:29:08;;;;;;;10.88;4.95;;;21.30;76.80;;;;;;5053364;28;20388;-89
2022/08/23 06:31:45;;;;;;;9.60;5.82;;;21.30;76.60;;;;;;5055367;28;20031;-92
2022/08/23 06:34:32;;;;;;;9.60;6.15;;;21.40;76.60;;;;;;5071228;28;20028;-92
2022/08/23 06:37:01;;;;;;;9.65;5.50;;;21.50;76.80;;;;;;5054495;28;20032;-93
2022/08/23 06:39:30;;;;;;;9.48;5.88;;;21.50;76.70;;;;;;5052990;28;20021;-92
2022/08/23 06:42:07;;;;;;;9.05;5.70;;;21.60;76.90;;;;;;5052754;28;20032;-90
2022/08/23 06:44:35;;;;;;;11.82;6.38;;;21.60;76.90;;;;;;5055597;28;20123;-92
2022/08/23 06:47:01;;;;;;;9.48;5.88;;;21.60;77.00;;;;;;5054684;28;20036;-92
2022/08/23 06:49:27;;;;;;;12.10;6.35;;;21.70;77.20;;;;;;5056684;28;20086;-93
2022/08/23 06:51:56;;;;;;;10.55;5.82;;;21.70;77.30;;;;;;5056860;28;20526;-91
2022/08/23 06:54:24;;;;;;;10.63;6.38;;;21.80;77.30;;;;;;5055177;28;20036;-93
2022/08/23 06:56:50;;;;;;;9.38;5.25;;;21.80;77.10;;;;;;5052698;28;20044;-93
2022/08/23 06:59:17;;;;;;;9.32;6.15;;;21.90;76.80;;;;;;5053808;28;20537;-92
2022/08/23 07:02:01;;;;;;;11.13;5.82;;;22.00;76.50;;;;;;5054606;28;20056;-90
2022/08/23 07:04:33;;;;;;;10.18;5.95;;;22.10;76.10;;;;;;5055293;28;20515;-93
2022/08/23 07:07:02;;;;;;;12.13;5.45;;;22.10;75.80;;;;;;5056952;28;20025;-91
2022/08/23 07:09:29;;;;;;;10.65;6.07;;;22.20;75.60;;;;;;5055708;28;20112;-93
2022/08/23 07:11:55;;;;;;;10.68;6.03;;;22.20;75.30;;;;;;5053661;28;20124;-93
2022/08/23 07:14:22;;;;;;;8.20;5.47;;;22.30;75.10;;;;;;5054039;28;20057;-93
2022/08/23 07:16:50;;;;;;;9.15;5.45;;;22.30;75.40;;;;;;5059418;28;20019;-93
2022/08/23 07:19:19;;;;;;;8.85;5.45;;;22.40;74.60;;;;;;5062349;28;20021;-93
2022/08/23 07:21:45;;;;;;;10.73;6.05;;;22.40;74.30;;;;;;5058721;28;20056;-93
2022/08/23 07:24:12;;;;;;;10.25;5.70;;;22.50;74.00;;;;;;5055217;28;20033;-92
2022/08/23 07:26:39;;;;;;;13.63;5.85;;;22.50;73.90;;;;;;5053282;28;20035;-92
2022/08/23 07:29:06;;;;;;;13.13;5.53;;;22.50;73.90;;;;;;5054655;28;20021;-92
2022/08/23 07:31:34;;;;;;;11.93;6.40;;;22.60;73.90;;;;;;5053632;28;20104;-93
2022/08/23 07:34:02;;;;;;;11.02;5.80;;;22.60;73.90;;;;;;5054083;28;20052;-88
2022/08/23 07:36:30;;;;;;;11.10;5.65;;;22.60;73.80;;;;;;5055636;28;20428;-93
2022/08/23 07:38:56;;;;;;;10.90;5.57;;;22.60;73.70;;;;;;5056429;28;20021;-93
2022/08/23 07:41:31;;;;;;;9.73;5.15;;;22.70;73.70;;;;;;5056655;28;20053;-93
2022/08/23 07:44:01;;;;;;;8.80;5.45;;;22.70;73.60;;;;;;5058681;28;20028;-93
2022/08/23 07:46:28;;;;;;;9.32;5.50;;;22.80;73.60;;;;;;5059675;28;20033;-94
2022/08/23 07:48:56;;;;;;;12.15;5.97;;;22.80;73.50;;;;;;5058203;28;20065;-93
2022/08/23 07:51:23;;;;;;;12.88;6.18;;;22.80;73.40;;;;;;5040436;28;20036;-92
2022/08/23 07:53:49;;;;;;;12.68;6.18;;;22.80;73.30;;;;;;5056531;28;20029;-93
2022/08/23 07:56:19;;;;;;;11.45;5.60;;;22.90;73.20;;;;;;5056744;28;20056;-94
2022/08/23 07:58:45;;;;;;;7.53;5.15;;;22.90;73.00;;;;;;5059504;28;20029;-94
2022/08/23 08:01:17;;;;;;;10.57;5.30;;;22.90;72.90;;;;;;5057960;28;20024;-93
2022/08/23 08:03:47;;;;;;;9.55;5.78;;;23.00;72.90;;;;;;5057243;28;20048;-92
2022/08/23 08:06:16;;;;;;;11.95;5.93;;;23.00;72.70;;;;;;5057304;28;20111;-93
2022/08/23 08:08:42;;;;;;;11.30;6.15;;;23.10;72.50;;;;;;5058271;28;20085;-93
2022/08/23 08:11:12;;;;;;;10.50;6.00;;;23.10;72.10;;;;;;5057323;28;20123;-93
2022/08/23 08:13:40;;;;;;;9.65;5.70;;;23.20;71.80;;;;;;5056252;28;20021;-94
2022/08/23 08:16:07;;;;;;;10.55;5.40;;;23.20;71.60;;;;;;5057104;28;20021;-92
2022/08/23 08:18:34;;;;;;;8.68;4.70;;;23.20;71.30;;;;;;5056922;28;20508;-93
2022/08/23 08:21:00;;;;;;;10.30;5.10;;;23.30;71.10;;;;;;5056211;28;20025;-93
2022/08/23 08:23:28;;;;;;;12.27;5.05;;;23.30;70.80;;;;;;5058673;28;20441;-93
2022/08/23 08:26:05;;;;;;;7.57;4.47;;;23.40;70.50;;;;;;5055877;28;20164;-91
2022/08/23 08:28:32;;;;;;;11.90;5.18;;;23.40;70.10;;;;;;5057148;28;20121;-93
2022/08/23 08:30:58;;;;;;;10.65;5.13;;;23.50;69.80;;;;;;5056765;28;20057;-93
2022/08/23 08:33:25;;;;;;;11.13;4.40;;;23.50;69.40;;;;;;5056384;28;20418;-93
2022/08/23 08:35:51;;;;;;;8.63;4.20;;;23.60;69.10;;;;;;5057670;28;20465;-91
2022/08/23 08:38:17;;;;;;;9.23;3.83;;;23.70;68.70;;;;;;5058581;28;20033;-91
2022/08/23 08:40:44;;;;;;;8.52;3.15;;;23.80;68.50;;;;;;5064465;28;20129;-91
2022/08/23 08:43:37;;;;;;;7.30;4.03;;;23.80;68.20;;;;;;5056459;28;20465;-89
2022/08/23 08:46:12;;;;;;;13.95;4.35;;;23.90;68.20;;;;;;5057171;28;20032;-92
2022/08/23 08:48:44;;;;;;;8.75;4.35;;;23.90;68.10;;;;;;5056101;28;20029;-93
2022/08/23 08:51:22;;;;;;;7.40;3.80;;;24.00;67.70;;;;;;5057426;28;20515;-93
2022/08/23 08:53:50;;;;;;;7.85;3.08;;;24.10;67.30;;;;;;5055482;28;20044;-94
2022/08/23 08:56:23;;;;;;;7.15;3.17;;;24.10;67.20;;;;;;5067545;28;20103;-92
2022/08/23 08:59:00;;;;;;;9.98;4.07;;;24.10;67.10;;;;;;5074629;28;20036;-88
2022/08/23 09:01:27;;;;;;;8.63;3.63;;;24.20;67.10;;;;;;5063127;28;20037;-91
2022/08/23 09:03:55;;;;;;;7.55;3.88;;;24.30;66.90;;;;;;5057977;28;20044;-92
2022/08/23 09:06:29;;;;;;;9.35;4.32;;;24.40;66.70;;;;;;5057138;28;20056;-93
2022/08/23 09:09:04;;;;;;;10.57;4.15;;;24.40;66.50;;;;;;5056081;28;20029;-93
2022/08/23 09:11:49;;;;;;;11.43;4.25;;;24.50;66.30;;;;;;5054682;28;20031;-91
2022/08/23 09:14:48;;;;;;;8.57;4.00;;;24.60;66.00;;;;;;5054674;28;20473;-92
2022/08/23 09:17:34;;;;;;;6.90;3.10;;;24.60;65.60;;;;;;5055698;28;20048;-93
2022/08/23 09:20:03;;;;;;;6.72;3.50;;;24.70;65.00;;;;;;5054512;28;20536;-93
2022/08/23 09:22:39;;;;;;;8.85;3.42;;;24.80;64.70;;;;;;5055994;28;20450;-93
2022/08/23 09:25:10;;;;;;;6.10;2.80;;;24.90;64.50;;;;;;5054188;28;20060;-92
2022/08/23 09:27:38;;;;;;;8.75;3.35;;;25.00;64.40;;;;;;5054462;28;20544;-93
2022/08/23 09:30:04;;;;;;;10.38;4.05;;;25.00;64.30;;;;;;5038182;28;20025;-94
2022/08/23 09:32:36;;;;;;;6.45;3.28;;;25.10;64.20;;;;;;5053781;28;20029;-94
2022/08/23 09:35:16;;;;;;;6.88;2.28;;;25.20;63.70;;;;;;5054061;28;20036;-93
2022/08/23 09:38:00;;;;;;;6.75;2.63;;;25.30;63.20;;;;;;5056851;28;20056;-91
2022/08/23 09:40:30;;;;;;;6.45;2.30;;;25.30;62.90;;;;;;5055804;28;20059;-93
2022/08/23 09:43:10;;;;;;;5.50;2.25;;;25.40;62.80;;;;;;5055119;28;20064;-90
2022/08/23 09:45:39;;;;;;;10.75;3.15;;;25.50;62.30;;;;;;5054186;28;20071;-90
2022/08/23 09:48:06;;;;;;;9.40;3.78;;;25.60;62.00;;;;;;5055149;28;20021;-92
2022/08/23 09:50:44;;;;;;;6.70;3.22;;;25.70;61.70;;;;;;5056487;28;20112;-93
2022/08/23 09:53:13;;;;;;;8.45;3.38;;;25.80;61.30;;;;;;5053258;28;20100;-88
2022/08/23 09:55:42;;;;;;;9.55;3.80;;;25.90;61.10;;;;;;5035320;28;20057;-89
2022/08/23 09:58:37;;;;;;;7.05;2.95;;;25.90;61.00;;;;;;5052751;28;20483;-89
2022/08/23 10:01:17;;;;;;;7.47;3.17;;;26.00;61.00;;;;;;5054617;28;20079;-93
2022/08/23 10:03:44;;;;;;;5.85;2.80;;;26.10;61.00;;;;;;5053526;28;20052;-93
2022/08/23 10:06:14;;;;;;;9.90;2.60;;;26.20;60.80;;;;;;5053746;28;20086;-93
2022/08/23 10:08:55;;;;;;;7.32;2.30;;;26.40;60.30;;;;;;5053270;28;20063;-91
2022/08/23 10:11:23;;;;;;;6.78;2.80;;;26.50;60.40;;;;;;5053805;28;20021;-92
2022/08/23 10:13:49;;;;;;;5.47;2.40;;;26.60;59.50;;;;;;5054393;28;20071;-91
2022/08/23 10:16:30;;;;;;;9.02;2.70;;;26.70;59.20;;;;;;5053249;28;20078;-91
2022/08/23 10:19:14;;;;;;;5.30;1.95;;;26.80;59.10;;;;;;5053802;28;20029;-90
2022/08/23 10:21:58;;;;;;;7.78;1.85;;;26.90;58.70;;;;;;5055081;28;20029;-91
2022/08/23 10:24:27;;;;;;;7.72;1.88;;;27.20;57.70;;;;;;5054378;28;20099;-91
2022/08/23 10:30:26;;;;;;;6.18;1.63;;;27.50;56.80;;;;;;5054691;28;20135;-90
2022/08/23 10:33:05;;;;;;;4.03;1.27;;;27.70;56.30;;;;;;5053102;28;20473;-89
2022/08/23 10:35:38;;;;;;;7.63;1.90;;;27.90;56.20;;;;;;5053999;28;20048;-92
2022/08/23 10:38:12;;;;;;;7.20;1.85;;;28.10;55.60;;;;;;5053021;28;20036;-91
2022/08/23 10:40:51;;;;;;;7.97;2.05;;;28.30;55.40;;;;;;5053008;28;20075;-90
2022/08/23 10:43:29;;;;;;;5.55;1.85;;;28.50;54.60;;;;;;5055663;28;20037;-90
2022/08/23 10:45:59;;;;;;;9.57;2.35;;;28.70;54.40;;;;;;5054679;28;20070;-92
2022/08/23 10:48:29;;;;;;;5.50;1.88;;;28.90;53.80;;;;;;5055128;28;20457;-92
2022/08/23 10:51:10;;;;;;;7.97;2.08;;;29.00;53.30;;;;;;5054369;28;20021;-92
2022/08/23 10:53:46;;;;;;;5.97;1.45;;;29.20;52.60;;;;;;5052646;28;20036;-92
2022/08/23 10:56:20;;;;;;;6.35;1.52;;;29.30;52.50;;;;;;5053990;28;20045;-91
2022/08/23 10:58:54;;;;;;;6.75;1.50;;;29.40;52.40;;;;;;5053932;28;20017;-90
2022/08/23 11:01:42;;;;;;;6.57;1.38;;;29.50;52.10;;;;;;5059233;28;20025;-92
2022/08/23 11:04:28;;;;;;;4.28;1.23;;;29.60;51.90;;;;;;5058793;28;20052;-90
2022/08/23 11:06:57;;;;;;;8.23;1.55;;;29.70;51.20;;;;;;5064867;28;20023;-91
2022/08/23 11:09:34;;;;;;;5.03;1.05;;;29.90;51.00;;;;;;5057484;28;20029;-90
2022/08/23 11:12:26;;;;;;;3.63;1.13;;;30.00;50.50;;;;;;5059008;28;20029;-88
2022/08/23 11:14:55;;;;;;;5.90;1.10;;;30.20;50.10;;;;;;5062093;28;20032;-91
2022/08/23 11:17:33;;;;;;;4.20;1.10;;;30.40;50.10;;;;;;5057659;28;20029;-88
2022/08/23 11:20:08;;;;;;;6.25;1.27;;;30.60;49.70;;;;;;5059015;28;20108;-89
2022/08/23 11:22:57;;;;;;;5.93;1.33;;;30.80;49.30;;;;;;5059453;28;20412;-91
2022/08/23 11:25:22;;;;;;;6.40;1.65;;;31.00;48.80;;;;;;5037949;28;20533;-90
2022/08/23 11:27:48;;;;;;;3.15;1.45;;;31.20;49.10;;;;;;5057206;28;20063;-88
2022/08/23 11:30:33;;;;;;;5.07;1.58;;;31.20;48.70;;;;;;5057155;28;20428;-89
2022/08/23 11:33:20;;;;;;;5.18;1.52;;;31.50;48.10;;;;;;5057777;28;20484;-89
2022/08/23 11:35:53;;;;;;;4.78;1.15;;;31.70;48.30;;;;;;5057184;28;20033;-90
2022/08/23 11:38:38;;;;;;;;;;;31.80;48.20;;;;;;5061631;28;20029;-92
2022/08/23 11:41:16;;;;;;;2.83;0.88;;;32.00;48.20;;;;;;5038227;28;19905;-91
2022/08/23 11:43:45;;;;;;;6.03;1.42;;;32.20;47.80;;;;;;5056370;28;20143;-90
2022/08/23 11:46:22;;;;;;;6.68;1.70;;;32.20;47.60;;;;;;5056691;28;20017;-92
2022/08/23 11:49:11;;;;;;;7.68;1.52;;;32.20;47.40;;;;;;5056551;28;20027;-89
2022/08/23 11:51:44;;;;;;;7.28;1.30;;;32.20;47.10;;;;;;5056026;28;20056;-89
2022/08/23 11:54:18;;;;;;;5.97;1.30;;;32.20;47.10;;;;;;5055605;28;20024;-89
2022/08/23 11:57:14;;;;;;;5.10;1.50;;;32.30;47.20;;;;;;5055534;28;20049;-90
2022/08/23 12:00:15;;;;;;;4.80;1.55;;;32.30;47.10;;;;;;5056115;28;20021;-89
2022/08/23 12:03:07;;;;;;;6.03;1.50;;;32.30;47.40;;;;;;5058168;28;20032;-92
2022/08/23 12:05:32;;;;;;;6.60;1.50;;;32.50;47.60;;;;;;5048218;28;20041;-87
2022/08/23 12:08:01;;;;;;;5.63;1.67;;;32.70;47.60;;;;;;5058895;28;20028;-90
2022/08/23 12:10:45;;;;;;;4.75;1.63;;;33.00;47.20;;;;;;5055936;28;20366;-89
2022/08/23 12:13:17;;;;;;;6.78;2.00;;;33.20;46.20;;;;;;5056385;28;20025;-89
2022/08/23 12:16:08;;;;;;;5.25;1.63;;;33.50;46.10;;;;;;5057285;28;20070;-89
2022/08/23 12:18:46;;;;;;;7.10;1.67;;;33.50;45.80;;;;;;5057256;28;20021;-88
2022/08/23 12:21:40;;;;;;;6.80;1.30;;;33.40;45.70;;;;;;5055067;28;20032;-88
2022/08/23 12:24:24;;;;;;;4.95;1.40;;;33.40;45.40;;;;;;5056549;28;20056;-89
2022/08/23 12:27:23;;;;;;;6.00;1.73;;;33.60;45.60;;;;;;5055119;28;20114;-90
2022/08/23 12:29:58;;;;;;;5.32;1.30;;;33.80;45.20;;;;;;5056565;28;20025;-92
2022/08/23 12:32:27;;;;;;;5.95;1.17;;;34.10;45.30;;;;;;5056031;28;20080;-93
2022/08/23 12:35:24;;;;;;;3.72;1.30;;;34.40;45.20;;;;;;5057462;28;20025;-91
2022/08/23 12:38:17;;;;;;;6.30;1.40;;;34.70;44.80;;;;;;5054918;28;20025;-89
2022/08/23 12:40:48;;;;;;;4.23;0.93;;;34.90;44.60;;;;;;5058574;28;20104;-87
2022/08/23 12:43:13;;;;;;;5.50;1.33;;;34.90;44.20;;;;;;5060760;28;20283;-91
2022/08/23 12:45:47;;;;;;;6.03;1.38;;;34.90;43.90;;;;;;5056658;28;20067;-90
2022/08/23 12:48:16;;;;;;;6.88;1.10;;;34.70;43.60;;;;;;5056596;28;20025;-90
2022/08/23 12:50:44;;;;;;;3.83;1.00;;;34.50;43.50;;;;;;5057029;28;20033;-90
2022/08/23 12:53:16;;;;;;;3.10;1.00;;;34.40;43.40;;;;;;5055209;28;20032;-89
2022/08/23 12:55:57;;;;;;;5.15;1.45;;;34.20;43.30;;;;;;5055882;28;20028;-90
2022/08/23 12:58:28;;;;;;;4.00;1.25;;;34.10;43.40;;;;;;5056576;28;20029;-88
2022/08/23 13:00:57;;;;;;;4.93;1.30;;;33.90;43.50;;;;;;5057853;28;20536;-92
2022/08/23 13:03:35;;;;;;;5.15;1.00;;;33.70;43.70;;;;;;5055333;28;20045;-91
2022/08/23 13:06:13;;;;;;;5.28;1.17;;;33.60;43.80;;;;;;5054858;28;20021;-92
2022/08/23 13:08:48;;;;;;;3.63;1.13;;;33.40;43.80;;;;;;5057140;28;20025;-92
2022/08/23 13:11:19;;;;;;;4.22;1.08;;;33.30;43.90;;;;;;5054548;28;20021;-90
2022/08/23 13:13:45;;;;;;;6.28;1.30;;;33.20;44.00;;;;;;5056154;28;20025;-92
2022/08/23 13:16:35;;;;;;;3.38;0.85;;;33.10;44.20;;;;;;5056608;28;20079;-90
2022/08/23 13:19:24;;;;;;;4.07;0.88;;;33.00;44.30;;;;;;5056306;28;20029;-90